sensor_id;sensor_type;location;lat;lon;timestamp;pressure;altitude;pressure_sealevel;temperature;humidity
9460;BME280;4768;42.664;23.240;2022-07-17T00:02:06;172402.38;;;20.41;nan
9460;BME280;4768;42.664;23.240;2022-07-17T00:04:34;172368.88;;;20.29;nan
9460;BME280;4768;42.664;23.240;2022-07-17T00:07:01;172379.63;;;20.33;nan
9460;BME280;4768;42.664;23.240;2022-07-17T00:09:28;172370.19;;;20.30;nan
9460;BME280;4768;42.664;23.240;2022-07-17T00:11:55;172356.81;;;20.25;nan
9460;BME280;4768;42.664;23.240;2022-07-17T00:14:22;172338.03;;;20.18;nan
9460;BME280;4768;42.664;23.240;2022-07-17T00:16:49;172339.34;;;20.18;nan
9460;BME280;4768;42.664;23.240;2022-07-17T00:19:17;172364.84;;;20.28;nan
9460;BME280;4768;42.664;23.240;2022-07-17T00:21:45;172359.44;;;20.26;nan
9460;BME280;4768;42.664;23.240;2022-07-17T00:24:11;172368.88;;;20.29;nan
9460;BME280;4768;42.664;23.240;2022-07-17T00:26:45;172350.09;;;20.22;nan
9460;BME280;4768;42.664;23.240;2022-07-17T00:29:12;172305.84;;;20.06;nan
9460;BME280;4768;42.664;23.240;2022-07-17T00:31:39;172364.84;;;20.28;nan
9460;BME280;4768;42.664;23.240;2022-07-17T00:34:06;172383.63;;;20.35;nan
9460;BME280;4768;42.664;23.240;2022-07-17T00:36:32;172329.97;;;20.15;nan
9460;BME280;4768;42.664;23.240;2022-07-17T00:39:01;172338.03;;;20.18;nan
9460;BME280;4768;42.664;23.240;2022-07-17T00:41:27;172390.31;;;20.37;nan
9460;BME280;4768;42.664;23.240;2022-07-17T00:43:54;172406.41;;;20.43;nan
9460;BME280;4768;42.664;23.240;2022-07-17T00:46:21;172427.88;;;20.51;nan
9460;BME280;4768;42.664;23.240;2022-07-17T00:48:48;172417.13;;;20.47;nan
9460;BME280;4768;42.664;23.240;2022-07-17T00:51:14;172371.56;;;20.30;nan
9460;BME280;4768;42.664;23.240;2022-07-17T00:53:42;172338.03;;;20.18;nan
9460;BME280;4768;42.664;23.240;2022-07-17T00:56:11;172351.41;;;20.23;nan
9460;BME280;4768;42.664;23.240;2022-07-17T00:58:39;172334.00;;;20.16;nan
9460;BME280;4768;42.664;23.240;2022-07-17T01:01:06;172367.56;;;20.29;nan
9460;BME280;4768;42.664;23.240;2022-07-17T01:03:33;172364.84;;;20.28;nan
9460;BME280;4768;42.664;23.240;2022-07-17T01:06:00;172358.13;;;20.25;nan
9460;BME280;4768;42.664;23.240;2022-07-17T01:08:27;172372.91;;;20.31;nan
9460;BME280;4768;42.664;23.240;2022-07-17T01:10:54;172346.06;;;20.21;nan
9460;BME280;4768;42.664;23.240;2022-07-17T01:13:22;172329.97;;;20.15;nan
9460;BME280;4768;42.664;23.240;2022-07-17T01:15:49;172300.50;;;20.04;nan
9460;BME280;4768;42.664;23.240;2022-07-17T01:18:16;172297.81;;;20.03;nan
9460;BME280;4768;42.664;23.240;2022-07-17T01:20:45;172291.09;;;20.00;nan
9460;BME280;4768;42.664;23.240;2022-07-17T01:23:14;172292.47;;;20.01;nan
9460;BME280;4768;42.664;23.240;2022-07-17T01:25:41;172288.44;;;19.99;nan
9460;BME280;4768;42.664;23.240;2022-07-17T01:28:08;172308.53;;;20.07;nan
9460;BME280;4768;42.664;23.240;2022-07-17T01:30:35;172258.91;;;19.88;nan
9460;BME280;4768;42.664;23.240;2022-07-17T01:33:02;172224.06;;;19.76;nan
9460;BME280;4768;42.664;23.240;2022-07-17T01:35:29;172225.38;;;19.76;nan
9460;BME280;4768;42.664;23.240;2022-07-17T01:37:55;172252.19;;;19.86;nan
9460;BME280;4768;42.664;23.240;2022-07-17T01:40:23;172264.31;;;19.90;nan
9460;BME280;4768;42.664;23.240;2022-07-17T01:42:50;172246.81;;;19.84;nan
9460;BME280;4768;42.664;23.240;2022-07-17T01:45:18;172225.38;;;19.76;nan
9460;BME280;4768;42.664;23.240;2022-07-17T01:47:45;172195.91;;;19.65;nan
9460;BME280;4768;42.664;23.240;2022-07-17T01:50:13;172159.69;;;19.52;nan
9460;BME280;4768;42.664;23.240;2022-07-17T01:52:42;172116.84;;;19.36;nan
9460;BME280;4768;42.664;23.240;2022-07-17T01:55:10;172138.25;;;19.44;nan
9460;BME280;4768;42.664;23.240;2022-07-17T01:57:39;172127.53;;;19.40;nan
9460;BME280;4768;42.664;23.240;2022-07-17T02:00:09;172136.94;;;19.43;nan
9460;BME280;4768;42.664;23.240;2022-07-17T02:02:37;172094.03;;;19.28;nan
9460;BME280;4768;42.664;23.240;2022-07-17T02:05:04;172077.97;;;19.22;nan
9460;BME280;4768;42.664;23.240;2022-07-17T02:07:31;172055.19;;;19.13;nan
9460;BME280;4768;42.664;23.240;2022-07-17T02:09:59;172009.59;;;18.96;nan
9460;BME280;4768;42.664;23.240;2022-07-17T02:12:25;172014.94;;;18.98;nan
9460;BME280;4768;42.664;23.240;2022-07-17T02:14:53;172025.72;;;19.02;nan
9460;BME280;4768;42.664;23.240;2022-07-17T02:17:20;172048.50;;;19.11;nan
9460;BME280;4768;42.664;23.240;2022-07-17T02:19:47;172040.47;;;19.08;nan
9460;BME280;4768;42.664;23.240;2022-07-17T02:22:14;172028.41;;;19.03;nan
9460;BME280;4768;42.664;23.240;2022-07-17T02:24:40;172027.03;;;19.03;nan
9460;BME280;4768;42.664;23.240;2022-07-17T02:27:07;172010.91;;;18.97;nan
9460;BME280;4768;42.664;23.240;2022-07-17T02:29:34;172040.47;;;19.08;nan
9460;BME280;4768;42.664;23.240;2022-07-17T02:32:02;172021.66;;;19.01;nan
9460;BME280;4768;42.664;23.240;2022-07-17T02:34:29;172018.94;;;19.00;nan
9460;BME280;4768;42.664;23.240;2022-07-17T02:36:56;172006.88;;;18.95;nan
9460;BME280;4768;42.664;23.240;2022-07-17T02:39:23;171996.16;;;18.91;nan
9460;BME280;4768;42.664;23.240;2022-07-17T02:41:50;171950.63;;;18.75;nan
9460;BME280;4768;42.664;23.240;2022-07-17T02:44:16;171941.28;;;18.71;nan
9460;BME280;4768;42.664;23.240;2022-07-17T02:46:43;171898.41;;;18.55;nan
9460;BME280;4768;42.664;23.240;2022-07-17T02:49:11;171889.03;;;18.52;nan
9460;BME280;4768;42.664;23.240;2022-07-17T02:51:38;171886.34;;;18.51;nan
9460;BME280;4768;42.664;23.240;2022-07-17T02:54:05;171879.63;;;18.48;nan
9460;BME280;4768;42.664;23.240;2022-07-17T02:56:31;171864.94;;;18.43;nan
9460;BME280;4768;42.664;23.240;2022-07-17T02:58:58;171852.88;;;18.39;nan
9460;BME280;4768;42.664;23.240;2022-07-17T03:01:25;171820.69;;;18.27;nan
9460;BME280;4768;42.664;23.240;2022-07-17T03:03:52;171807.31;;;18.22;nan
9460;BME280;4768;42.664;23.240;2022-07-17T03:06:20;171810.03;;;18.23;nan
9460;BME280;4768;42.664;23.240;2022-07-17T03:08:46;171818.06;;;18.26;nan
9460;BME280;4768;42.664;23.240;2022-07-17T03:11:13;171823.41;;;18.28;nan
9460;BME280;4768;42.664;23.240;2022-07-17T03:13:40;171830.09;;;18.30;nan
9460;BME280;4768;42.664;23.240;2022-07-17T03:16:07;171850.19;;;18.38;nan
9460;BME280;4768;42.664;23.240;2022-07-17T03:18:33;171839.47;;;18.34;nan
9460;BME280;4768;42.664;23.240;2022-07-17T03:21:00;171868.97;;;18.44;nan
9460;BME280;4768;42.664;23.240;2022-07-17T03:23:28;171846.16;;;18.36;nan
9460;BME280;4768;42.664;23.240;2022-07-17T03:25:56;171850.19;;;18.38;nan
9460;BME280;4768;42.664;23.240;2022-07-17T03:28:23;171836.75;;;18.33;nan
9460;BME280;4768;42.664;23.240;2022-07-17T03:30:50;171840.78;;;18.34;nan
9460;BME280;4768;42.664;23.240;2022-07-17T03:33:16;171844.81;;;18.36;nan
9460;BME280;4768;42.664;23.240;2022-07-17T03:35:43;171842.16;;;18.35;nan
9460;BME280;4768;42.664;23.240;2022-07-17T03:38:10;171850.19;;;18.38;nan
9460;BME280;4768;42.664;23.240;2022-07-17T03:40:38;171863.56;;;18.42;nan
9460;BME280;4768;42.664;23.240;2022-07-17T03:43:05;171881.00;;;18.49;nan
9460;BME280;4768;42.664;23.240;2022-07-17T03:45:31;171875.63;;;18.47;nan
9460;BME280;4768;42.664;23.240;2022-07-17T03:47:58;171855.53;;;18.40;nan
9460;BME280;4768;42.664;23.240;2022-07-17T03:50:25;171879.63;;;18.48;nan
9460;BME280;4768;42.664;23.240;2022-07-17T03:52:51;171926.53;;;18.66;nan
9460;BME280;4768;42.664;23.240;2022-07-17T03:55:18;171966.72;;;18.81;nan
9460;BME280;4768;42.664;23.240;2022-07-17T03:57:47;171981.47;;;18.86;nan
9460;BME280;4768;42.664;23.240;2022-07-17T04:00:14;171982.78;;;18.87;nan
9460;BME280;4768;42.664;23.240;2022-07-17T04:02:42;171942.59;;;18.72;nan
9460;BME280;4768;42.664;23.240;2022-07-17T04:05:09;171917.16;;;18.62;nan
9460;BME280;4768;42.664;23.240;2022-07-17T04:07:36;171942.59;;;18.72;nan
9460;BME280;4768;42.664;23.240;2022-07-17T04:10:04;171914.47;;;18.61;nan
9460;BME280;4768;42.664;23.240;2022-07-17T04:12:31;171905.13;;;18.58;nan
9460;BME280;4768;42.664;23.240;2022-07-17T04:14:59;171949.31;;;18.74;nan
9460;BME280;4768;42.664;23.240;2022-07-17T04:17:26;172040.47;;;19.08;nan
9460;BME280;4768;42.664;23.240;2022-07-17T04:19:53;172149.00;;;19.48;nan
9460;BME280;4768;42.664;23.240;2022-07-17T04:22:20;172212.00;;;19.71;nan
9460;BME280;4768;42.664;23.240;2022-07-17T04:24:47;172233.41;;;19.79;nan
9460;BME280;4768;42.664;23.240;2022-07-17T04:27:13;172296.47;;;20.02;nan
9460;BME280;4768;42.664;23.240;2022-07-17T04:29:40;172336.69;;;20.17;nan
9460;BME280;4768;42.664;23.240;2022-07-17T04:32:08;172371.56;;;20.30;nan
9460;BME280;4768;42.664;23.240;2022-07-17T04:34:35;172403.75;;;20.42;nan
9460;BME280;4768;42.664;23.240;2022-07-17T04:37:03;172425.19;;;20.50;nan
9460;BME280;4768;42.664;23.240;2022-07-17T04:39:30;172448.00;;;20.58;nan
9460;BME280;4768;42.664;23.240;2022-07-17T04:41:57;172437.25;;;20.54;nan
9460;BME280;4768;42.664;23.240;2022-07-17T04:44:23;172402.38;;;20.41;nan
9460;BME280;4768;42.664;23.240;2022-07-17T04:46:50;172430.53;;;20.52;nan
9460;BME280;4768;42.664;23.240;2022-07-17T04:49:18;172472.13;;;20.67;nan
9460;BME280;4768;42.664;23.240;2022-07-17T04:51:45;172470.75;;;20.67;nan
9460;BME280;4768;42.664;23.240;2022-07-17T04:54:11;172567.41;;;21.02;nan
9460;BME280;4768;42.664;23.240;2022-07-17T04:56:38;172622.38;;;21.23;nan
9460;BME280;4768;42.664;23.240;2022-07-17T04:59:05;172631.78;;;21.26;nan
9460;BME280;4768;42.664;23.240;2022-07-17T05:01:32;172598.22;;;21.14;nan
9460;BME280;4768;42.664;23.240;2022-07-17T05:03:59;172617.00;;;21.21;nan
9460;BME280;4768;42.664;23.240;2022-07-17T05:06:27;172653.22;;;21.34;nan
9460;BME280;4768;42.664;23.240;2022-07-17T05:08:54;172641.16;;;21.30;nan
9460;BME280;4768;42.664;23.240;2022-07-17T05:11:21;172747.22;;;21.69;nan
9460;BME280;4768;42.664;23.240;2022-07-17T05:13:47;172778.06;;;21.80;nan
9460;BME280;4768;42.664;23.240;2022-07-17T05:16:14;172841.13;;;22.03;nan
9460;BME280;4768;42.664;23.240;2022-07-17T05:18:41;172865.28;;;22.12;nan
9460;BME280;4768;42.664;23.240;2022-07-17T05:21:08;172947.25;;;22.42;nan
9460;BME280;4768;42.664;23.240;2022-07-17T05:23:36;172923.09;;;22.34;nan
9460;BME280;4768;42.664;23.240;2022-07-17T05:26:02;172859.94;;;22.10;nan
9460;BME280;4768;42.664;23.240;2022-07-17T05:28:29;172830.38;;;21.99;nan
9460;BME280;4768;42.664;23.240;2022-07-17T05:30:56;172924.41;;;22.34;nan
9460;BME280;4768;42.664;23.240;2022-07-17T05:33:23;172994.19;;;22.60;nan
9460;BME280;4768;42.664;23.240;2022-07-17T05:35:49;172931.13;;;22.36;nan
9460;BME280;4768;42.664;23.240;2022-07-17T05:38:16;172976.75;;;22.53;nan
9460;BME280;4768;42.664;23.240;2022-07-17T05:40:44;173014.31;;;22.67;nan
9460;BME280;4768;42.664;23.240;2022-07-17T05:43:11;172933.78;;;22.37;nan
9460;BME280;4768;42.664;23.240;2022-07-17T05:45:38;172850.50;;;22.07;nan
9460;BME280;4768;42.664;23.240;2022-07-17T05:48:05;172951.28;;;22.44;nan
9460;BME280;4768;42.664;23.240;2022-07-17T05:50:33;172955.28;;;22.45;nan
9460;BME280;4768;42.664;23.240;2022-07-17T05:53:00;173035.84;;;22.75;nan
9460;BME280;4768;42.664;23.240;2022-07-17T05:55:27;173107.06;;;23.01;nan
9460;BME280;4768;42.664;23.240;2022-07-17T05:57:55;173178.19;;;23.28;nan
9460;BME280;4768;42.664;23.240;2022-07-17T06:00:21;173097.63;;;22.98;nan
9460;BME280;4768;42.664;23.240;2022-07-17T06:02:48;173289.72;;;23.69;nan
9460;BME280;4768;42.664;23.240;2022-07-17T06:05:15;173223.88;;;23.44;nan
9460;BME280;4768;42.664;23.240;2022-07-17T06:07:42;173257.44;;;23.57;nan
9460;BME280;4768;42.664;23.240;2022-07-17T06:10:09;173166.09;;;23.23;nan
9460;BME280;4768;42.664;23.240;2022-07-17T06:12:36;173053.28;;;22.82;nan
9460;BME280;4768;42.664;23.240;2022-07-17T06:15:05;173164.78;;;23.23;nan
9460;BME280;4768;42.664;23.240;2022-07-17T06:17:32;173206.41;;;23.38;nan
9460;BME280;4768;42.664;23.240;2022-07-17T06:19:59;173198.34;;;23.35;nan
9460;BME280;4768;42.664;23.240;2022-07-17T06:22:26;173103.03;;;23.00;nan
9460;BME280;4768;42.664;23.240;2022-07-17T06:24:53;173065.34;;;22.86;nan
9460;BME280;4768;42.664;23.240;2022-07-17T06:27:20;173085.50;;;22.93;nan
9460;BME280;4768;42.664;23.240;2022-07-17T06:29:46;173073.41;;;22.89;nan
9460;BME280;4768;42.664;23.240;2022-07-17T06:32:15;173090.94;;;22.95;nan
9460;BME280;4768;42.664;23.240;2022-07-17T06:34:42;173141.94;;;23.14;nan
9460;BME280;4768;42.664;23.240;2022-07-17T06:37:09;173179.56;;;23.28;nan
9460;BME280;4768;42.664;23.240;2022-07-17T06:39:35;173257.44;;;23.57;nan
9460;BME280;4768;42.664;23.240;2022-07-17T06:42:02;173343.50;;;23.88;nan
9460;BME280;4768;42.664;23.240;2022-07-17T06:44:29;173339.47;;;23.87;nan
9460;BME280;4768;42.664;23.240;2022-07-17T06:46:56;173362.25;;;23.95;nan
9460;BME280;4768;42.664;23.240;2022-07-17T06:49:24;173347.53;;;23.90;nan
9460;BME280;4768;42.664;23.240;2022-07-17T06:51:51;173359.59;;;23.94;nan
9460;BME280;4768;42.664;23.240;2022-07-17T06:54:18;173437.50;;;24.23;nan
9460;BME280;4768;42.664;23.240;2022-07-17T06:56:44;173434.84;;;24.22;nan
9460;BME280;4768;42.664;23.240;2022-07-17T06:59:11;173417.34;;;24.16;nan
9460;BME280;4768;42.664;23.240;2022-07-17T07:01:38;173356.91;;;23.93;nan
9460;BME280;4768;42.664;23.240;2022-07-17T07:04:05;173270.91;;;23.62;nan
9460;BME280;4768;42.664;23.240;2022-07-17T07:06:33;173407.97;;;24.12;nan
9460;BME280;4768;42.664;23.240;2022-07-17T07:09:00;173448.28;;;24.27;nan
9460;BME280;4768;42.664;23.240;2022-07-17T07:11:26;173467.16;;;24.34;nan
9460;BME280;4768;42.664;23.240;2022-07-17T07:13:53;173514.16;;;24.51;nan
9460;BME280;4768;42.664;23.240;2022-07-17T07:16:20;173459.03;;;24.31;nan
9460;BME280;4768;42.664;23.240;2022-07-17T07:18:47;173430.84;;;24.21;nan
9460;BME280;4768;42.664;23.240;2022-07-17T07:21:14;173347.53;;;23.90;nan
9460;BME280;4768;42.664;23.240;2022-07-17T07:23:42;173515.53;;;24.52;nan
9460;BME280;4768;42.664;23.240;2022-07-17T07:26:09;173399.91;;;24.09;nan
9460;BME280;4768;42.664;23.240;2022-07-17T07:28:35;173472.50;;;24.36;nan
9460;BME280;4768;42.664;23.240;2022-07-17T07:31:03;173442.91;;;24.25;nan
9460;BME280;4768;42.664;23.240;2022-07-17T07:33:30;173429.44;;;24.20;nan
9460;BME280;4768;42.664;23.240;2022-07-17T07:35:57;173519.56;;;24.53;nan
9460;BME280;4768;42.664;23.240;2022-07-17T07:38:23;173649.94;;;25.01;nan
9460;BME280;4768;42.664;23.240;2022-07-17T07:40:52;173768.28;;;25.45;nan
9460;BME280;4768;42.664;23.240;2022-07-17T07:43:18;173604.22;;;24.84;nan
9460;BME280;4768;42.664;23.240;2022-07-17T07:45:45;173580.03;;;24.76;nan
9460;BME280;4768;42.664;23.240;2022-07-17T07:48:12;173417.34;;;24.16;nan
9460;BME280;4768;42.664;23.240;2022-07-17T07:50:40;173489.97;;;24.42;nan
9460;BME280;4768;42.664;23.240;2022-07-17T07:53:06;173432.16;;;24.21;nan
9460;BME280;4768;42.664;23.240;2022-07-17T07:55:33;173557.16;;;24.67;nan
9460;BME280;4768;42.664;23.240;2022-07-17T07:58:07;173668.78;;;25.08;nan
9460;BME280;4768;42.664;23.240;2022-07-17T08:00:35;173494.00;;;24.44;nan
9460;BME280;4768;42.664;23.240;2022-07-17T08:03:02;173491.34;;;24.43;nan
9460;BME280;4768;42.664;23.240;2022-07-17T08:05:29;173383.78;;;24.03;nan
9460;BME280;4768;42.664;23.240;2022-07-17T08:07:56;173352.88;;;23.92;nan
9460;BME280;4768;42.664;23.240;2022-07-17T08:10:23;173581.34;;;24.76;nan
9460;BME280;4768;42.664;23.240;2022-07-17T08:12:50;173576.00;;;24.74;nan
9460;BME280;4768;42.664;23.240;2022-07-17T08:15:19;173676.84;;;25.11;nan
9460;BME280;4768;42.664;23.240;2022-07-17T08:17:47;173808.63;;;25.60;nan
9460;BME280;4768;42.664;23.240;2022-07-17T08:20:16;173900.13;;;25.93;nan
9460;BME280;4768;42.664;23.240;2022-07-17T08:22:44;173824.81;;;25.66;nan
9460;BME280;4768;42.664;23.240;2022-07-17T08:25:11;173791.16;;;25.53;nan
9460;BME280;4768;42.664;23.240;2022-07-17T08:27:39;173822.09;;;25.65;nan
9460;BME280;4768;42.664;23.240;2022-07-17T08:30:08;173734.63;;;25.32;nan
9460;BME280;4768;42.664;23.240;2022-07-17T08:32:37;173742.75;;;25.35;nan
9460;BME280;4768;42.664;23.240;2022-07-17T08:35:05;173624.38;;;24.92;nan
9460;BME280;4768;42.664;23.240;2022-07-17T08:37:42;173590.81;;;24.80;nan
9460;BME280;4768;42.664;23.240;2022-07-17T08:40:15;173713.16;;;25.25;nan
9460;BME280;4768;42.664;23.240;2022-07-17T08:42:43;173598.84;;;24.82;nan
9460;BME280;4768;42.664;23.240;2022-07-17T08:45:10;173621.69;;;24.91;nan
9460;BME280;4768;42.664;23.240;2022-07-17T08:47:38;173610.97;;;24.87;nan
9460;BME280;4768;42.664;23.240;2022-07-17T08:50:06;173695.69;;;25.18;nan
9460;BME280;4768;42.664;23.240;2022-07-17T08:52:33;173567.94;;;24.71;nan
9460;BME280;4768;42.664;23.240;2022-07-17T08:55:00;173666.09;;;25.07;nan
9460;BME280;4768;42.664;23.240;2022-07-17T08:57:27;173878.56;;;25.85;nan
9460;BME280;4768;42.664;23.240;2022-07-17T08:59:54;174014.47;;;26.35;nan
9460;BME280;4768;42.664;23.240;2022-07-17T09:02:21;173897.41;;;25.92;nan
9460;BME280;4768;42.664;23.240;2022-07-17T09:04:54;173768.28;;;25.45;nan
9460;BME280;4768;42.664;23.240;2022-07-17T09:07:21;173691.66;;;25.17;nan
9460;BME280;4768;42.664;23.240;2022-07-17T09:09:52;173827.50;;;25.67;nan
9460;BME280;4768;42.664;23.240;2022-07-17T09:12:25;173988.88;;;26.26;nan
9460;BME280;4768;42.664;23.240;2022-07-17T09:14:52;173861.09;;;25.79;nan
9460;BME280;4768;42.664;23.240;2022-07-17T09:17:19;173697.00;;;25.19;nan
9460;BME280;4768;42.664;23.240;2022-07-17T09:19:46;173832.88;;;25.69;nan
9460;BME280;4768;42.664;23.240;2022-07-17T09:22:15;173801.88;;;25.57;nan
9460;BME280;4768;42.664;23.240;2022-07-17T09:24:45;173886.63;;;25.88;nan
9460;BME280;4768;42.664;23.240;2022-07-17T09:27:15;173656.69;;;25.04;nan
9460;BME280;4768;42.664;23.240;2022-07-17T09:29:56;173801.88;;;25.57;nan
9460;BME280;4768;42.664;23.240;2022-07-17T09:32:27;173920.28;;;26.01;nan
9460;BME280;4768;42.664;23.240;2022-07-17T09:34:55;173896.06;;;25.92;nan
9460;BME280;4768;42.664;23.240;2022-07-17T09:37:25;173994.28;;;26.28;nan
9460;BME280;4768;42.664;23.240;2022-07-17T09:39:53;173983.50;;;26.24;nan
9460;BME280;4768;42.664;23.240;2022-07-17T09:42:25;174018.50;;;26.37;nan
9460;BME280;4768;42.664;23.240;2022-07-17T09:44:57;173827.50;;;25.67;nan
9460;BME280;4768;42.664;23.240;2022-07-17T09:47:25;173709.13;;;25.23;nan
9460;BME280;4768;42.664;23.240;2022-07-17T09:49:52;173877.22;;;25.85;nan
9460;BME280;4768;42.664;23.240;2022-07-17T09:52:21;173800.53;;;25.57;nan
9460;BME280;4768;42.664;23.240;2022-07-17T09:54:52;173865.13;;;25.80;nan
9460;BME280;4768;42.664;23.240;2022-07-17T09:57:19;173918.97;;;26.00;nan
9460;BME280;4768;42.664;23.240;2022-07-17T09:59:46;174050.78;;;26.49;nan
9460;BME280;4768;42.664;23.240;2022-07-17T10:02:15;174143.66;;;26.83;nan
9460;BME280;4768;42.664;23.240;2022-07-17T10:04:43;173948.53;;;26.11;nan
9460;BME280;4768;42.664;23.240;2022-07-17T10:07:09;173933.72;;;26.06;nan
9460;BME280;4768;42.664;23.240;2022-07-17T10:09:37;173966.00;;;26.18;nan
9460;BME280;4768;42.664;23.240;2022-07-17T10:12:07;174046.75;;;26.47;nan
9460;BME280;4768;42.664;23.240;2022-07-17T10:14:34;173898.72;;;25.93;nan
9460;BME280;4768;42.664;23.240;2022-07-17T10:17:08;173971.41;;;26.20;nan
9460;BME280;4768;42.664;23.240;2022-07-17T10:19:44;173980.81;;;26.23;nan
9460;BME280;4768;42.664;23.240;2022-07-17T10:22:11;173857.06;;;25.78;nan
9460;BME280;4768;42.664;23.240;2022-07-17T10:24:45;174002.34;;;26.31;nan
9460;BME280;4768;42.664;23.240;2022-07-17T10:27:19;174049.44;;;26.48;nan
9460;BME280;4768;42.664;23.240;2022-07-17T10:29:47;174068.28;;;26.55;nan
9460;BME280;4768;42.664;23.240;2022-07-17T10:32:15;174041.38;;;26.45;nan
9460;BME280;4768;42.664;23.240;2022-07-17T10:34:44;174056.19;;;26.51;nan
9460;BME280;4768;42.664;23.240;2022-07-17T10:37:30;174161.16;;;26.89;nan
9460;BME280;4768;42.664;23.240;2022-07-17T10:40:02;173863.81;;;25.80;nan
9460;BME280;4768;42.664;23.240;2022-07-17T10:42:56;174064.25;;;26.54;nan
9460;BME280;4768;42.664;23.240;2022-07-17T10:45:28;174178.66;;;26.96;nan
9460;BME280;4768;42.664;23.240;2022-07-17T10:48:00;174163.88;;;26.90;nan
9460;BME280;4768;42.664;23.240;2022-07-17T10:50:30;174175.97;;;26.95;nan
9460;BME280;4768;42.664;23.240;2022-07-17T10:53:04;174245.94;;;27.21;nan
9460;BME280;4768;42.664;23.240;2022-07-17T10:55:31;174307.88;;;27.43;nan
9460;BME280;4768;42.664;23.240;2022-07-17T10:58:00;174128.81;;;26.77;nan
9460;BME280;4768;42.664;23.240;2022-07-17T11:00:27;174135.56;;;26.80;nan
9460;BME280;4768;42.664;23.240;2022-07-17T11:02:54;174185.38;;;26.98;nan
9460;BME280;4768;42.664;23.240;2022-07-17T11:05:21;174249.97;;;27.22;nan
9460;BME280;4768;42.664;23.240;2022-07-17T11:07:56;174188.09;;;26.99;nan
9460;BME280;4768;42.664;23.240;2022-07-17T11:10:26;174146.31;;;26.84;nan
9460;BME280;4768;42.664;23.240;2022-07-17T11:12:54;174080.41;;;26.60;nan
9460;BME280;4768;42.664;23.240;2022-07-17T11:15:22;174142.25;;;26.82;nan
9460;BME280;4768;42.664;23.240;2022-07-17T11:17:50;174089.81;;;26.63;nan
9460;BME280;4768;42.664;23.240;2022-07-17T11:20:17;173978.09;;;26.22;nan
9460;BME280;4768;42.664;23.240;2022-07-17T11:22:44;173927.03;;;26.03;nan
9460;BME280;4768;42.664;23.240;2022-07-17T11:25:11;173953.88;;;26.13;nan
9460;BME280;4768;42.664;23.240;2022-07-17T11:27:38;173964.66;;;26.17;nan
9460;BME280;4768;42.664;23.240;2022-07-17T11:30:14;174041.38;;;26.45;nan
9460;BME280;4768;42.664;23.240;2022-07-17T11:32:42;174231.13;;;27.15;nan
9460;BME280;4768;42.664;23.240;2022-07-17T11:35:19;174334.81;;;27.53;nan
9460;BME280;4768;42.664;23.240;2022-07-17T11:37:48;174391.31;;;27.74;nan
9460;BME280;4768;42.664;23.240;2022-07-17T11:40:15;174247.25;;;27.21;nan
9460;BME280;4768;42.664;23.240;2022-07-17T11:42:42;174193.47;;;27.01;nan
9460;BME280;4768;42.664;23.240;2022-07-17T11:45:10;174322.63;;;27.49;nan
9460;BME280;4768;42.664;23.240;2022-07-17T11:47:37;174181.34;;;26.97;nan
9460;BME280;4768;42.664;23.240;2022-07-17T11:50:08;174268.81;;;27.29;nan
9460;BME280;4768;42.664;23.240;2022-07-17T11:52:53;174505.81;;;28.16;nan
9460;BME280;4768;42.664;23.240;2022-07-17T11:55:34;174668.81;;;28.76;nan
9460;BME280;4768;42.664;23.240;2022-07-17T11:58:02;174662.06;;;28.74;nan
9460;BME280;4768;42.664;23.240;2022-07-17T12:00:29;174419.59;;;27.84;nan
9460;BME280;4768;42.664;23.240;2022-07-17T12:03:00;174519.28;;;28.21;nan
9460;BME280;4768;42.664;23.240;2022-07-17T12:05:29;174577.19;;;28.42;nan
9460;BME280;4768;42.664;23.240;2022-07-17T12:07:56;174513.91;;;28.19;nan
9460;BME280;4768;42.664;23.240;2022-07-17T12:10:24;174496.41;;;28.13;nan
9460;BME280;4768;42.664;23.240;2022-07-17T12:12:54;174425.00;;;27.86;nan
9460;BME280;4768;42.664;23.240;2022-07-17T12:15:22;174473.47;;;28.04;nan
9460;BME280;4768;42.664;23.240;2022-07-17T12:17:49;174534.09;;;28.27;nan
9460;BME280;4768;42.664;23.240;2022-07-17T12:20:15;174567.72;;;28.39;nan
9460;BME280;4768;42.664;23.240;2022-07-17T12:22:45;174414.22;;;27.82;nan
9460;BME280;4768;42.664;23.240;2022-07-17T12:25:23;174509.88;;;28.18;nan
9460;BME280;4768;42.664;23.240;2022-07-17T12:27:50;174422.31;;;27.85;nan
9460;BME280;4768;42.664;23.240;2022-07-17T12:30:17;174561.03;;;28.36;nan
9460;BME280;4768;42.664;23.240;2022-07-17T12:32:45;174624.34;;;28.60;nan
9460;BME280;4768;42.664;23.240;2022-07-17T12:35:12;174710.56;;;28.91;nan
9460;BME280;4768;42.664;23.240;2022-07-17T12:37:39;174737.50;;;29.01;nan
9460;BME280;4768;42.664;23.240;2022-07-17T12:40:09;174648.63;;;28.69;nan
9460;BME280;4768;42.664;23.240;2022-07-17T12:42:36;174569.13;;;28.39;nan
9460;BME280;4768;42.664;23.240;2022-07-17T12:45:04;174451.94;;;27.96;nan
9460;BME280;4768;42.664;23.240;2022-07-17T12:47:31;174511.19;;;28.18;nan
9460;BME280;4768;42.664;23.240;2022-07-17T12:49:57;174493.72;;;28.12;nan
9460;BME280;4768;42.664;23.240;2022-07-17T12:52:24;174477.50;;;28.06;nan
9460;BME280;4768;42.664;23.240;2022-07-17T12:54:51;174427.72;;;27.87;nan
9460;BME280;4768;42.664;23.240;2022-07-17T12:57:19;174443.88;;;27.93;nan
9460;BME280;4768;42.664;23.240;2022-07-17T12:59:46;174336.19;;;27.54;nan
9460;BME280;4768;42.664;23.240;2022-07-17T13:02:12;174266.13;;;27.28;nan
9460;BME280;4768;42.664;23.240;2022-07-17T13:04:39;174185.38;;;26.98;nan
9460;BME280;4768;42.664;23.240;2022-07-17T13:07:06;174214.97;;;27.09;nan
9460;BME280;4768;42.664;23.240;2022-07-17T13:09:33;174317.28;;;27.47;nan
9460;BME280;4768;42.664;23.240;2022-07-17T13:12:01;174437.13;;;27.91;nan
9460;BME280;4768;42.664;23.240;2022-07-17T13:14:30;174369.81;;;27.66;nan
9460;BME280;4768;42.664;23.240;2022-07-17T13:16:56;174489.69;;;28.10;nan
9460;BME280;4768;42.664;23.240;2022-07-17T13:19:23;174462.69;;;28.00;nan
9460;BME280;4768;42.664;23.240;2022-07-17T13:21:50;174511.19;;;28.18;nan
9460;BME280;4768;42.664;23.240;2022-07-17T13:24:17;174472.13;;;28.04;nan
9460;BME280;4768;42.664;23.240;2022-07-17T13:26:44;174411.50;;;27.81;nan